createdAt,value
2022-09-12T00:00:50.325Z,13.88
2022-09-12T00:03:41.066Z,13.86
2022-09-12T00:06:23.429Z,13.83
2022-09-12T00:08:57.117Z,13.85
2022-09-12T00:11:28.801Z,13.92
2022-09-12T00:14:02.958Z,13.95
2022-09-12T00:16:35.504Z,13.95
2022-09-12T00:19:07.229Z,13.99
2022-09-12T00:21:39.497Z,14.03
2022-09-12T00:24:11.134Z,14.06
2022-09-12T00:26:40.864Z,14.09
2022-09-12T00:29:17.066Z,14.11
2022-09-12T00:31:48.192Z,14.16
2022-09-12T00:34:17.961Z,14.18
2022-09-12T00:36:47.946Z,14.22
2022-09-12T00:39:18.179Z,14.24
2022-09-12T00:41:48.099Z,14.22
2022-09-12T00:44:24.772Z,14.23
2022-09-12T00:46:58.941Z,14.25
2022-09-12T00:49:48.966Z,14.25
2022-09-12T00:52:45.434Z,14.28
2022-09-12T00:55:30.805Z,14.32
2022-09-12T00:58:10.647Z,14.37
2022-09-12T01:00:42.018Z,14.39
2022-09-12T01:03:17.359Z,14.41
2022-09-12T01:06:18.495Z,14.40
2022-09-12T01:08:51.662Z,14.45
2022-09-12T01:11:22.985Z,14.47
2022-09-12T01:13:53.028Z,14.50
2022-09-12T01:16:22.950Z,14.52
2022-09-12T01:19:15.401Z,14.54
2022-09-12T01:21:55.950Z,14.56
2022-09-12T01:25:05.959Z,14.56
2022-09-12T01:28:23.990Z,14.58
2022-09-12T01:31:06.383Z,14.59
2022-09-12T01:33:48.382Z,14.62
2022-09-12T01:36:24.831Z,14.66
2022-09-12T01:39:04.690Z,14.70
2022-09-12T01:41:54.312Z,14.74
2022-09-12T01:45:03.624Z,14.76
2022-09-12T01:47:41.717Z,14.78
2022-09-12T01:50:29.131Z,14.78
2022-09-12T01:53:13.328Z,14.77
2022-09-12T01:56:03.388Z,14.75
2022-09-12T01:59:04.298Z,14.77
2022-09-12T02:01:37.003Z,14.80
2022-09-12T02:04:34.478Z,14.82
2022-09-12T02:07:31.920Z,14.86
2022-09-12T02:10:23.845Z,14.88
2022-09-12T02:13:13.352Z,14.90
2022-09-12T02:15:49.326Z,14.93
2022-09-12T02:18:21.492Z,14.96
2022-09-12T02:20:52.582Z,14.99
2022-09-12T02:23:28.412Z,15.02
2022-09-12T02:26:06.405Z,15.05
2022-09-12T02:28:42.856Z,15.05
2022-09-12T02:31:32.319Z,15.03
2022-09-12T02:34:08.913Z,14.99
2022-09-12T02:37:18.880Z,14.94
2022-09-12T02:39:49.608Z,14.90
2022-09-12T02:42:19.879Z,14.83
2022-09-12T02:44:50.475Z,14.79
2022-09-12T02:47:32.376Z,14.76
2022-09-12T02:50:05.814Z,14.72
2022-09-12T02:52:37.087Z,14.66
2022-09-12T02:55:07.648Z,14.56
2022-09-12T02:57:37.670Z,14.49
2022-09-12T03:00:07.840Z,14.44
2022-09-12T03:03:10.495Z,14.37
2022-09-12T03:05:53.489Z,14.32
2022-09-12T03:09:02.961Z,14.26
2022-09-12T03:11:38.288Z,14.21
2022-09-12T03:14:37.468Z,14.19
2022-09-12T03:17:41.525Z,14.17
2022-09-12T03:20:20.992Z,14.15
2022-09-12T03:23:15.411Z,14.11
2022-09-12T03:26:14.304Z,14.06
2022-09-12T03:28:45.981Z,14.02
2022-09-12T03:31:18.296Z,13.94
2022-09-12T03:33:49.123Z,13.89
2022-09-12T03:36:25.368Z,13.84
2022-09-12T03:38:56.395Z,13.77
2022-09-12T03:41:27.033Z,13.72
2022-09-12T03:43:57.659Z,13.66
2022-09-12T03:46:26.126Z,13.60
2022-09-12T03:48:56.681Z,13.56
2022-09-12T03:51:26.325Z,13.55
2022-09-12T03:53:56.648Z,13.52
2022-09-12T03:56:26.601Z,13.49
2022-09-12T03:58:56.226Z,13.46
2022-09-12T04:01:26.284Z,13.43
2022-09-12T04:03:56.190Z,13.43
2022-09-12T04:06:24.614Z,13.42
2022-09-12T04:08:55.344Z,13.41
2022-09-12T04:11:25.508Z,13.43
2022-09-12T04:13:57.499Z,13.42
2022-09-12T04:16:27.515Z,13.38
2022-09-12T04:18:57.482Z,13.36
2022-09-12T04:21:27.740Z,13.31
2022-09-12T04:23:57.991Z,13.26
2022-09-12T04:26:30.217Z,13.22
2022-09-12T04:29:00.154Z,13.20
2022-09-12T04:31:30.324Z,13.18
2022-09-12T04:34:01.409Z,13.13
2022-09-12T04:36:31.852Z,13.12
2022-09-12T04:39:02.815Z,13.11
2022-09-12T04:41:38.784Z,13.09
2022-09-12T04:44:13.049Z,13.09
2022-09-12T04:46:45.778Z,13.10
2022-09-12T04:49:19.719Z,13.10
2022-09-12T04:51:53.151Z,13.10
2022-09-12T04:54:23.174Z,13.11
2022-09-12T04:56:55.165Z,13.11
2022-09-12T04:59:24.885Z,13.10
2022-09-12T05:01:54.626Z,13.08
2022-09-12T05:04:24.880Z,13.08
2022-09-12T05:06:53.506Z,13.08
2022-09-12T05:09:23.312Z,13.09
2022-09-12T05:12:08.152Z,13.15
2022-09-12T05:14:39.215Z,13.18
2022-09-12T05:17:08.484Z,13.23
2022-09-12T05:19:38.485Z,13.27
2022-09-12T05:22:08.257Z,13.30
2022-09-12T05:24:40.217Z,13.32
2022-09-12T05:27:11.926Z,13.33
2022-09-12T05:29:43.353Z,13.33
2022-09-12T05:32:13.160Z,13.36
2022-09-12T05:34:43.468Z,13.40
2022-09-12T05:37:13.370Z,13.48
2022-09-12T05:39:42.932Z,13.57
2022-09-12T05:42:12.891Z,13.63
2022-09-12T05:44:42.917Z,13.73
2022-09-12T05:47:13.434Z,13.82
2022-09-12T05:49:45.602Z,13.89
2022-09-12T05:52:14.221Z,13.95
2022-09-12T05:54:43.715Z,13.99
2022-09-12T05:57:13.911Z,14.04
2022-09-12T05:59:43.955Z,14.05
2022-09-12T06:02:14.338Z,14.04
2022-09-12T06:04:44.352Z,14.05
2022-09-12T06:07:15.140Z,14.11
2022-09-12T06:09:44.979Z,14.13
2022-09-12T06:12:14.773Z,14.20
2022-09-12T06:14:45.056Z,14.25
2022-09-12T06:17:14.918Z,14.30
2022-09-12T06:19:44.724Z,14.35
2022-09-12T06:22:14.558Z,14.42
2022-09-12T06:24:44.440Z,14.52
2022-09-12T06:27:14.755Z,14.68
2022-09-12T06:29:43.261Z,14.83
2022-09-12T06:32:14.413Z,14.84
2022-09-12T06:34:44.150Z,14.85
2022-09-12T06:37:14.223Z,14.82
2022-09-12T06:39:44.458Z,14.79
2022-09-12T06:42:15.147Z,14.88
2022-09-12T06:44:50.972Z,14.99
2022-09-12T06:47:21.425Z,15.10
2022-09-12T06:49:51.248Z,15.26
2022-09-12T06:52:20.389Z,15.40
2022-09-12T06:54:50.487Z,15.48
2022-09-12T06:57:20.459Z,15.57
2022-09-12T06:59:50.994Z,15.65
2022-09-12T07:02:21.477Z,15.55
2022-09-12T07:04:52.688Z,15.49
2022-09-12T07:07:22.627Z,15.55
2022-09-12T07:09:52.624Z,15.50
2022-09-12T07:12:22.100Z,15.43
2022-09-12T07:14:52.072Z,15.42
2022-09-12T07:17:22.094Z,15.37
2022-09-12T07:19:51.484Z,15.53
2022-09-12T07:22:20.770Z,15.68
2022-09-12T07:24:50.719Z,15.66
2022-09-12T07:27:21.552Z,15.55
2022-09-12T07:29:51.852Z,15.52
2022-09-12T07:32:21.166Z,15.62
2022-09-12T07:34:50.637Z,15.75
2022-09-12T07:37:21.154Z,15.86
2022-09-12T07:39:51.059Z,15.82
2022-09-12T07:42:20.163Z,15.63
2022-09-12T07:44:52.866Z,15.47
2022-09-12T07:47:23.063Z,15.32
2022-09-12T07:49:53.450Z,15.23
2022-09-12T07:52:21.916Z,15.29
2022-09-12T07:54:51.814Z,15.43
2022-09-12T07:57:21.874Z,15.55
2022-09-12T07:59:53.225Z,15.64
2022-09-12T08:02:24.323Z,15.73
2022-09-12T08:04:54.406Z,15.82
2022-09-12T08:07:24.301Z,15.92
2022-09-12T08:09:54.254Z,15.97
2022-09-12T08:12:23.467Z,16.08
2022-09-12T08:14:53.699Z,16.23
2022-09-12T08:17:22.615Z,16.27
2022-09-12T08:19:52.933Z,16.39
2022-09-12T08:22:23.263Z,16.48
2022-09-12T08:24:54.137Z,16.50
2022-09-12T08:27:24.110Z,16.28
2022-09-12T08:29:55.681Z,16.07
2022-09-12T08:32:25.084Z,16.12
2022-09-12T08:34:54.393Z,16.15
2022-09-12T08:37:24.472Z,16.30
2022-09-12T08:39:54.113Z,16.43
2022-09-12T08:43:04.031Z,16.59
2022-09-12T08:45:37.198Z,16.76
2022-09-12T08:48:10.229Z,16.86
2022-09-12T08:50:49.333Z,17.00
2022-09-12T08:53:23.275Z,17.12
2022-09-12T08:56:00.202Z,17.24
2022-09-12T08:58:30.117Z,17.43
2022-09-12T09:01:11.729Z,17.49
2022-09-12T09:04:01.798Z,17.66
2022-09-12T09:07:08.341Z,17.76
2022-09-12T09:09:41.620Z,17.89
2022-09-12T09:12:29.486Z,18.03
2022-09-12T09:15:01.693Z,18.07
2022-09-12T09:17:43.556Z,18.06
2022-09-12T09:20:39.149Z,18.15
2022-09-12T09:23:28.989Z,18.29
2022-09-12T09:26:02.042Z,18.40
2022-09-12T09:28:45.768Z,18.54
2022-09-12T09:31:20.097Z,18.67
2022-09-12T09:33:52.447Z,18.71
2022-09-12T09:36:25.447Z,18.80
2022-09-12T09:39:06.277Z,18.87
2022-09-12T09:41:55.403Z,18.93
2022-09-12T09:44:25.248Z,19.02
2022-09-12T09:46:58.804Z,19.00
2022-09-12T09:49:32.555Z,19.01
2022-09-12T09:52:08.943Z,19.06
2022-09-12T09:54:46.702Z,19.07
2022-09-12T09:57:36.734Z,19.14
2022-09-12T10:00:27.483Z,19.22
2022-09-12T10:03:08.268Z,19.17
2022-09-12T10:05:50.711Z,19.11
2022-09-12T10:08:32.295Z,19.27
2022-09-12T10:11:07.341Z,19.41
2022-09-12T10:13:41.997Z,19.46
2022-09-12T10:16:31.786Z,19.57
2022-09-12T10:19:04.143Z,19.72
2022-09-12T10:21:57.175Z,19.72
2022-09-12T10:24:42.311Z,19.77
2022-09-12T10:27:21.650Z,19.81
2022-09-12T10:30:18.990Z,19.79
2022-09-12T10:32:52.387Z,19.77
2022-09-12T10:35:24.469Z,19.63
2022-09-12T10:37:58.709Z,19.60
2022-09-12T10:40:36.879Z,19.70
2022-09-12T10:43:37.718Z,19.71
2022-09-12T10:46:17.176Z,19.69
2022-09-12T10:48:51.067Z,19.53
2022-09-12T10:51:29.127Z,19.27
2022-09-12T10:54:02.437Z,19.08
2022-09-12T10:56:40.787Z,19.19
2022-09-12T10:59:34.680Z,19.40
2022-09-12T11:02:30.080Z,19.60
2022-09-12T11:05:19.482Z,19.81
2022-09-12T11:08:11.929Z,20.07
2022-09-12T11:11:11.240Z,20.19
2022-09-12T11:14:00.217Z,20.14
2022-09-12T11:16:43.189Z,19.94
2022-09-12T11:19:27.195Z,20.07
2022-09-12T11:22:23.615Z,20.30
2022-09-12T11:25:29.056Z,20.42
2022-09-12T11:28:20.390Z,20.26
2022-09-12T11:30:59.059Z,19.95
2022-09-12T11:33:50.422Z,20.17
2022-09-12T11:36:28.697Z,20.43
2022-09-12T11:39:18.408Z,20.72
2022-09-12T11:42:00.155Z,20.66
2022-09-12T11:44:46.555Z,20.76
2022-09-12T11:47:18.937Z,20.92
2022-09-12T11:49:54.610Z,21.08
2022-09-12T11:52:29.058Z,21.23
2022-09-12T11:55:17.528Z,21.15
2022-09-12T11:57:58.887Z,21.11
2022-09-12T12:00:37.420Z,21.01
2022-09-12T12:03:14.643Z,21.07
2022-09-12T12:06:15.413Z,21.02
2022-09-12T12:08:48.595Z,21.12
2022-09-12T12:11:37.857Z,21.29
2022-09-12T12:14:27.053Z,21.15
2022-09-12T12:16:58.188Z,20.83
2022-09-12T12:19:36.607Z,20.89
2022-09-12T12:22:26.659Z,21.08
2022-09-12T12:25:29.427Z,21.19
2022-09-12T12:28:07.233Z,21.15
2022-09-12T12:30:36.639Z,21.30
2022-09-12T12:33:13.471Z,21.62
2022-09-12T12:35:47.101Z,21.64
2022-09-12T12:38:37.447Z,21.37
2022-09-12T12:41:18.809Z,21.34
2022-09-12T12:43:50.512Z,21.17
2022-09-12T12:46:29.635Z,20.95
2022-09-12T12:49:05.207Z,21.09
2022-09-12T12:52:01.941Z,21.18
2022-09-12T12:54:43.473Z,21.11
2022-09-12T12:57:28.517Z,20.91
2022-09-12T13:00:08.271Z,20.91
2022-09-12T13:02:41.687Z,20.90
2022-09-12T13:05:24.733Z,20.74
2022-09-12T13:08:10.524Z,20.62
2022-09-12T13:10:49.785Z,20.36
2022-09-12T13:13:32.432Z,20.11
2022-09-12T13:16:02.598Z,20.08
2022-09-12T13:18:42.206Z,20.01
2022-09-12T13:21:15.853Z,20.00
2022-09-12T13:24:03.007Z,19.99
2022-09-12T13:26:44.320Z,20.09
2022-09-12T13:29:18.011Z,20.26
2022-09-12T13:31:55.985Z,20.32
2022-09-12T13:34:29.749Z,20.60
2022-09-12T13:37:23.712Z,20.75
2022-09-12T13:40:40.074Z,20.86
2022-09-12T13:43:17.465Z,20.86
2022-09-12T13:45:48.201Z,20.88
2022-09-12T13:48:26.725Z,20.85
2022-09-12T13:51:01.072Z,20.81
2022-09-12T13:53:42.691Z,20.73
2022-09-12T13:56:20.198Z,20.74
2022-09-12T13:58:57.831Z,20.79
2022-09-12T14:01:43.791Z,20.78
2022-09-12T14:04:39.246Z,20.76
2022-09-12T14:07:15.787Z,20.78
2022-09-12T14:09:53.690Z,20.86
2022-09-12T14:12:44.165Z,20.90
2022-09-12T14:15:28.176Z,20.92
2022-09-12T14:18:03.435Z,20.99
2022-09-12T14:20:38.984Z,20.95
2022-09-12T14:23:30.559Z,20.87
2022-09-12T14:26:08.661Z,20.85
2022-09-12T14:28:43.451Z,20.80
2022-09-12T14:31:17.301Z,20.77
2022-09-12T14:33:52.814Z,20.68
2022-09-12T14:36:30.731Z,20.58
2022-09-12T14:39:02.845Z,20.50
2022-09-12T14:41:40.320Z,20.37
2022-09-12T14:44:23.727Z,20.23
2022-09-12T14:46:54.385Z,20.28
2022-09-12T14:49:35.299Z,20.35
2022-09-12T14:52:22.542Z,20.32
2022-09-12T14:55:25.168Z,20.31
2022-09-12T14:58:23.124Z,20.28
2022-09-12T15:01:08.566Z,20.11
2022-09-12T15:03:50.129Z,20.12
2022-09-12T15:06:38.781Z,20.21
2022-09-12T15:09:14.528Z,20.30
2022-09-12T15:11:44.128Z,20.41
2022-09-12T15:14:14.992Z,20.46
2022-09-12T15:16:45.233Z,20.48
2022-09-12T15:19:15.166Z,20.47
2022-09-12T15:21:45.083Z,20.43
2022-09-12T15:24:13.448Z,20.33
2022-09-12T15:26:43.478Z,20.20
2022-09-12T15:29:13.324Z,20.10
2022-09-12T15:31:51.310Z,20.11
2022-09-12T15:34:23.934Z,20.12
2022-09-12T15:36:53.701Z,20.08
2022-09-12T15:39:23.498Z,19.96
2022-09-12T15:41:52.966Z,19.83
2022-09-12T15:44:21.466Z,19.72
2022-09-12T15:46:51.090Z,19.64
2022-09-12T15:49:20.346Z,19.56
2022-09-12T15:51:50.067Z,19.50
2022-09-12T15:54:21.126Z,19.41
2022-09-12T15:56:50.589Z,19.31
2022-09-12T15:59:21.000Z,19.25
2022-09-12T16:01:51.473Z,19.18
2022-09-12T16:04:26.783Z,19.02
2022-09-12T16:06:57.616Z,18.80
2022-09-12T16:09:26.853Z,18.64
2022-09-12T16:11:56.554Z,18.52
2022-09-12T16:14:26.446Z,18.44
2022-09-12T16:16:57.364Z,18.34
2022-09-12T16:19:27.272Z,18.22
2022-09-12T16:21:56.982Z,18.10
2022-09-12T16:24:26.670Z,18.01
2022-09-12T16:27:00.519Z,17.93
2022-09-12T16:29:31.708Z,17.82
2022-09-12T16:32:03.588Z,17.72
2022-09-12T16:34:33.301Z,17.59
2022-09-12T16:37:03.420Z,17.46
2022-09-12T16:39:34.807Z,17.32
2022-09-12T16:42:04.965Z,17.17
2022-09-12T16:44:35.545Z,17.07
2022-09-12T16:47:05.262Z,17.03
2022-09-12T16:49:35.300Z,17.00
2022-09-12T16:52:06.175Z,16.96
2022-09-12T16:54:34.771Z,16.89
2022-09-12T16:57:06.738Z,16.84
2022-09-12T16:59:37.020Z,16.76
2022-09-12T17:02:08.674Z,16.71
2022-09-12T17:04:38.665Z,16.68
2022-09-12T17:07:08.818Z,16.66
2022-09-12T17:09:38.055Z,16.62
2022-09-12T17:12:08.467Z,16.57
2022-09-12T17:14:37.787Z,16.50
2022-09-12T17:17:06.405Z,16.43
2022-09-12T17:19:35.646Z,16.39
2022-09-12T17:22:05.390Z,16.32
2022-09-12T17:24:35.482Z,16.20
2022-09-12T17:27:04.784Z,16.08
2022-09-12T17:29:37.145Z,15.89
2022-09-12T17:32:06.539Z,15.73
2022-09-12T17:34:36.230Z,15.55
2022-09-12T17:37:05.875Z,15.37
2022-09-12T17:39:35.123Z,15.21
2022-09-12T17:42:08.268Z,15.08
2022-09-12T17:44:37.761Z,14.94
2022-09-12T17:47:07.412Z,14.84
2022-09-12T17:49:38.259Z,14.73
2022-09-12T17:52:08.518Z,14.63
2022-09-12T17:54:38.914Z,14.56
2022-09-12T17:57:08.620Z,14.48
2022-09-12T17:59:38.163Z,14.43
2022-09-12T18:02:18.360Z,14.37
2022-09-12T18:04:48.596Z,14.34
2022-09-12T18:07:19.823Z,14.34
2022-09-12T18:09:50.957Z,14.36
2022-09-12T18:12:21.055Z,14.40
2022-09-12T18:14:51.185Z,14.44
2022-09-12T18:17:21.797Z,14.49
2022-09-12T18:19:53.800Z,14.51
2022-09-12T18:22:23.801Z,14.53
2022-09-12T18:24:53.725Z,14.56
2022-09-12T18:27:23.580Z,14.62
2022-09-12T18:30:17.305Z,14.66
2022-09-12T18:32:43.642Z,14.68
2022-09-12T18:35:14.110Z,14.68
2022-09-12T18:37:44.368Z,14.68
2022-09-12T18:40:14.222Z,14.66
2022-09-12T18:42:43.421Z,14.60
2022-09-12T18:45:13.094Z,14.54
2022-09-12T18:47:42.887Z,14.47
2022-09-12T18:50:12.547Z,14.38
2022-09-12T18:52:44.179Z,14.34
2022-09-12T18:55:14.083Z,14.28
2022-09-12T18:57:43.919Z,14.22
2022-09-12T19:00:14.064Z,14.19
2022-09-12T19:02:43.774Z,14.16
2022-09-12T19:05:13.433Z,14.13
2022-09-12T19:07:42.468Z,14.09
2022-09-12T19:10:12.577Z,14.06
2022-09-12T19:12:41.018Z,14.01
2022-09-12T19:15:10.948Z,13.99
2022-09-12T19:17:40.635Z,13.98
2022-09-12T19:20:09.406Z,14.00
2022-09-12T19:22:40.140Z,13.99
2022-09-12T19:25:18.384Z,14.02
2022-09-12T19:27:48.557Z,14.02
2022-09-12T19:30:18.283Z,14.01
2022-09-12T19:32:48.411Z,14.01
2022-09-12T19:35:18.015Z,14.03
2022-09-12T19:37:47.548Z,14.03
2022-09-12T19:40:16.272Z,14.04
2022-09-12T19:42:46.259Z,14.05
2022-09-12T19:45:16.010Z,14.07
2022-09-12T19:47:46.031Z,14.08
2022-09-12T19:50:16.580Z,14.09
2022-09-12T19:52:46.592Z,14.10
2022-09-12T19:55:15.131Z,14.11
2022-09-12T19:57:44.717Z,14.10
2022-09-12T20:00:14.505Z,14.09
2022-09-12T20:02:44.302Z,14.07
2022-09-12T20:05:14.044Z,14.06
2022-09-12T20:07:43.745Z,14.05
2022-09-12T20:10:14.302Z,14.05
2022-09-12T20:12:43.878Z,14.05
2022-09-12T20:15:13.766Z,14.05
2022-09-12T20:17:43.489Z,14.05
2022-09-12T20:20:12.005Z,14.03
2022-09-12T20:22:41.630Z,13.99
2022-09-12T20:25:11.282Z,13.96
2022-09-12T20:27:40.530Z,13.92
2022-09-12T20:30:11.621Z,13.89
2022-09-12T20:32:40.560Z,13.86
2022-09-12T20:35:10.934Z,13.82
2022-09-12T20:37:41.147Z,13.77
2022-09-12T20:40:11.634Z,13.72
2022-09-12T20:42:41.505Z,13.69
2022-09-12T20:45:11.527Z,13.64
2022-09-12T20:47:41.626Z,13.60
2022-09-12T20:50:11.177Z,13.57
2022-09-12T20:52:41.079Z,13.56
2022-09-12T20:55:11.288Z,13.54
2022-09-12T20:57:40.866Z,13.52
2022-09-12T21:00:15.267Z,13.50
2022-09-12T21:02:44.994Z,13.49
2022-09-12T21:05:15.580Z,13.47
2022-09-12T21:07:45.172Z,13.45
2022-09-12T21:10:14.588Z,13.45
2022-09-12T21:12:44.517Z,13.42
2022-09-12T21:15:14.160Z,13.41
2022-09-12T21:17:44.009Z,13.39
2022-09-12T21:20:14.026Z,13.37
2022-09-12T21:22:43.329Z,13.35
2022-09-12T21:25:13.504Z,13.34
2022-09-12T21:27:43.686Z,13.33
2022-09-12T21:30:15.985Z,13.32
2022-09-12T21:32:45.276Z,13.33
2022-09-12T21:35:13.881Z,13.33
2022-09-12T21:37:44.798Z,13.35
2022-09-12T21:40:14.566Z,13.36
2022-09-12T21:42:45.466Z,13.37
2022-09-12T21:45:14.909Z,13.36
2022-09-12T21:47:45.257Z,13.35
2022-09-12T21:50:15.239Z,13.35
2022-09-12T21:52:45.125Z,13.33
2022-09-12T21:55:14.438Z,13.31
2022-09-12T21:57:44.544Z,13.30
2022-09-12T22:00:18.689Z,13.30
2022-09-12T22:02:49.347Z,13.30
2022-09-12T22:05:21.676Z,13.30
2022-09-12T22:07:51.506Z,13.29
2022-09-12T22:10:21.194Z,13.30
2022-09-12T22:12:51.014Z,13.30
2022-09-12T22:18:10.433Z,13.29
2022-09-12T22:20:40.572Z,13.27
2022-09-12T22:23:33.217Z,13.28
2022-09-12T22:26:04.359Z,13.28
2022-09-12T22:28:35.313Z,13.29
2022-09-12T22:31:06.983Z,13.30
2022-09-12T22:33:35.957Z,13.30
2022-09-12T22:36:07.476Z,13.30
2022-09-12T22:38:38.465Z,13.32
2022-09-12T22:41:10.696Z,13.32
2022-09-12T22:43:41.284Z,13.31
2022-09-12T22:46:12.770Z,13.30
2022-09-12T22:48:43.241Z,13.29
2022-09-12T22:51:12.888Z,13.29
2022-09-12T22:53:43.029Z,13.29
2022-09-12T22:56:13.215Z,13.30
2022-09-12T22:58:43.917Z,13.29
2022-09-12T23:01:14.812Z,13.29
2022-09-12T23:03:45.046Z,13.29
2022-09-12T23:06:15.126Z,13.30
2022-09-12T23:08:45.433Z,13.29
2022-09-12T23:11:17.908Z,13.28
2022-09-12T23:13:49.797Z,13.26
2022-09-12T23:16:25.168Z,13.23
2022-09-12T23:18:54.955Z,13.17
2022-09-12T23:21:25.121Z,13.14
2022-09-12T23:23:56.542Z,13.13
2022-09-12T23:26:30.504Z,13.11
2022-09-12T23:29:02.398Z,13.10
2022-09-12T23:31:33.869Z,13.10
2022-09-12T23:34:06.495Z,13.09
2022-09-12T23:36:37.512Z,13.07
2022-09-12T23:39:07.330Z,13.05
2022-09-12T23:41:36.965Z,13.03
2022-09-12T23:44:07.332Z,12.99
2022-09-12T23:46:37.073Z,12.97
2022-09-12T23:49:07.000Z,12.94
2022-09-12T23:51:36.863Z,12.91
2022-09-12T23:54:06.720Z,12.88
2022-09-12T23:56:36.838Z,12.85
2022-09-12T23:59:07.067Z,12.81
